createdAt,value
2023-03-01T00:01:09.383Z,27.00
2023-03-01T00:03:36.868Z,25.48
2023-03-01T00:06:04.257Z,26.13
2023-03-01T00:08:31.224Z,26.70
2023-03-01T00:11:13.203Z,26.08
2023-03-01T00:13:40.942Z,27.35
2023-03-01T00:16:11.870Z,27.80
2023-03-01T00:18:38.667Z,26.67
2023-03-01T00:21:05.519Z,25.80
2023-03-01T00:23:34.561Z,26.70
2023-03-01T00:26:01.707Z,26.45
2023-03-01T00:28:28.520Z,25.95
2023-03-01T00:30:55.272Z,27.60
2023-03-01T00:33:22.012Z,26.65
2023-03-01T00:35:48.915Z,26.25
2023-03-01T00:38:15.647Z,26.85
2023-03-01T00:40:42.435Z,27.27
2023-03-01T00:43:09.537Z,25.23
2023-03-01T00:45:36.271Z,24.98
2023-03-01T00:48:03.146Z,25.52
2023-03-01T00:50:29.894Z,26.58
2023-03-01T00:52:57.307Z,26.00
2023-03-01T00:55:24.874Z,25.70
2023-03-01T00:57:52.164Z,24.73
2023-03-01T01:00:20.498Z,26.60
2023-03-01T01:02:47.886Z,24.77
2023-03-01T01:05:15.773Z,26.08
2023-03-01T01:07:42.560Z,26.77
2023-03-01T01:10:13.849Z,25.27
2023-03-01T01:12:40.573Z,25.60
2023-03-01T01:15:07.858Z,24.88
2023-03-01T01:17:34.747Z,25.75
2023-03-01T01:20:01.469Z,24.73
2023-03-01T01:22:28.439Z,24.90
2023-03-01T01:24:55.198Z,25.85
2023-03-01T01:27:21.987Z,26.42
2023-03-01T01:29:48.666Z,25.45
2023-03-01T01:32:15.453Z,26.38
2023-03-01T01:34:42.335Z,25.80
2023-03-01T01:37:09.023Z,24.38
2023-03-01T01:39:36.526Z,26.67
2023-03-01T01:42:03.486Z,24.45
2023-03-01T01:44:31.034Z,23.67
2023-03-01T01:47:12.668Z,25.20
2023-03-01T01:49:44.372Z,23.67
2023-03-01T01:52:17.551Z,23.88
2023-03-01T01:55:15.829Z,24.25
2023-03-01T01:57:46.351Z,24.33
2023-03-01T02:00:16.544Z,24.08
2023-03-01T02:02:45.044Z,23.92
2023-03-01T02:05:30.690Z,25.05
2023-03-01T02:07:59.141Z,25.02
2023-03-01T02:10:27.857Z,24.40
2023-03-01T02:12:55.314Z,24.35
2023-03-01T02:15:22.090Z,25.20
2023-03-01T02:17:49.313Z,24.20
2023-03-01T02:20:48.233Z,25.63
2023-03-01T02:23:14.993Z,24.58
2023-03-01T02:25:47.716Z,24.02
2023-03-01T02:28:17.395Z,24.30
2023-03-01T02:31:04.341Z,24.70
2023-03-01T02:33:33.882Z,24.83
2023-03-01T02:36:04.494Z,25.10
2023-03-01T02:38:32.177Z,24.65
2023-03-01T02:40:59.489Z,24.75
2023-03-01T02:43:31.320Z,23.48
2023-03-01T02:46:06.717Z,25.33
2023-03-01T02:48:46.895Z,24.33
2023-03-01T02:51:45.829Z,24.75
2023-03-01T02:55:03.214Z,24.92
2023-03-01T02:57:32.130Z,24.38
2023-03-01T03:00:07.827Z,24.30
2023-03-01T03:02:38.731Z,23.55
2023-03-01T03:05:12.120Z,23.92
2023-03-01T03:07:41.737Z,23.73
2023-03-01T03:10:12.260Z,24.17
2023-03-01T03:12:39.645Z,24.08
2023-03-01T03:15:09.922Z,24.17
2023-03-01T03:17:41.850Z,26.45
2023-03-01T03:20:12.937Z,25.20
2023-03-01T03:22:42.647Z,24.58
2023-03-01T03:25:11.426Z,25.88
2023-03-01T03:27:39.732Z,24.25
2023-03-01T03:30:12.947Z,23.52
2023-03-01T03:32:41.137Z,24.73
2023-03-01T03:35:10.457Z,24.02
2023-03-01T03:37:57.478Z,24.58
2023-03-01T03:40:24.286Z,23.60
2023-03-01T03:42:51.169Z,25.25
2023-03-01T03:45:18.684Z,24.65
2023-03-01T03:47:45.936Z,25.60
2023-03-01T03:50:15.167Z,24.38
2023-03-01T03:52:41.997Z,25.67
2023-03-01T03:55:11.314Z,24.90
2023-03-01T03:57:39.358Z,25.30
2023-03-01T04:00:13.601Z,25.38
2023-03-01T04:02:44.020Z,23.85
2023-03-01T04:05:12.790Z,25.05
2023-03-01T04:07:40.023Z,24.45
2023-03-01T04:10:09.704Z,25.45
2023-03-01T04:12:37.029Z,25.33
2023-03-01T04:15:14.631Z,24.02
2023-03-01T04:17:48.587Z,24.42
2023-03-01T04:20:18.377Z,24.35
2023-03-01T04:22:47.898Z,23.58
2023-03-01T04:25:15.608Z,25.48
2023-03-01T04:27:42.413Z,24.63
2023-03-01T04:30:09.825Z,25.17
2023-03-01T04:32:36.674Z,25.20
2023-03-01T04:35:03.565Z,24.38
2023-03-01T04:37:30.720Z,24.45
2023-03-01T04:39:57.500Z,25.27
2023-03-01T04:42:24.474Z,24.58
2023-03-01T04:44:53.778Z,24.10
2023-03-01T04:47:20.522Z,25.70
2023-03-01T04:49:47.333Z,25.15
2023-03-01T04:52:14.102Z,24.40
2023-03-01T04:54:40.765Z,24.38
2023-03-01T04:57:07.556Z,25.20
2023-03-01T04:59:34.489Z,25.42
2023-03-01T05:02:01.366Z,24.90
2023-03-01T05:04:28.347Z,25.40
2023-03-01T05:06:55.070Z,25.80
2023-03-01T05:09:21.833Z,25.42
2023-03-01T05:11:48.648Z,25.92
2023-03-01T05:14:15.443Z,24.10
2023-03-01T05:16:42.213Z,25.35
2023-03-01T05:19:16.497Z,25.38
2023-03-01T05:22:02.570Z,23.55
2023-03-01T05:24:30.816Z,25.33
2023-03-01T05:26:57.539Z,23.60
2023-03-01T05:29:26.099Z,25.80
2023-03-01T05:31:54.565Z,24.33
2023-03-01T05:34:26.424Z,24.58
2023-03-01T05:36:54.563Z,24.63
2023-03-01T05:39:26.916Z,24.90
2023-03-01T05:41:55.485Z,23.77
2023-03-01T05:44:22.743Z,25.27
2023-03-01T05:46:50.425Z,23.13
2023-03-01T05:49:17.532Z,24.63
2023-03-01T05:51:49.067Z,23.20
2023-03-01T05:54:16.353Z,23.58
2023-03-01T05:56:44.516Z,22.90
2023-03-01T05:59:11.778Z,22.73
2023-03-01T06:01:38.745Z,23.40
2023-03-01T06:04:05.647Z,23.02
2023-03-01T06:06:40.520Z,23.83
2023-03-01T06:09:10.096Z,22.85
2023-03-01T06:11:38.107Z,23.85
2023-03-01T06:14:07.448Z,22.60
2023-03-01T06:16:34.380Z,24.63
2023-03-01T06:19:01.108Z,23.10
2023-03-01T06:21:27.848Z,21.88
2023-03-01T06:23:54.561Z,23.20
2023-03-01T06:26:21.529Z,21.77
2023-03-01T06:28:48.510Z,21.70
2023-03-01T06:31:15.524Z,22.27
2023-03-01T06:33:42.334Z,21.90
2023-03-01T06:36:10.399Z,21.77
2023-03-01T06:38:37.217Z,22.73
2023-03-01T06:41:04.068Z,21.35
2023-03-01T06:43:30.827Z,21.52
2023-03-01T06:45:57.554Z,22.55
2023-03-01T06:48:24.213Z,22.80
2023-03-01T06:50:50.989Z,22.92
2023-03-01T06:53:17.754Z,22.70
2023-03-01T06:55:44.440Z,22.05
2023-03-01T06:58:12.166Z,22.00
2023-03-01T07:00:40.995Z,22.08
2023-03-01T07:03:07.964Z,20.40
2023-03-01T07:05:34.867Z,21.60
2023-03-01T07:08:01.693Z,22.20
2023-03-01T07:10:28.500Z,21.15
2023-03-01T07:12:59.265Z,22.00
2023-03-01T07:15:27.277Z,21.70
2023-03-01T07:17:54.071Z,19.67
2023-03-01T07:20:25.551Z,18.95
2023-03-01T07:22:57.332Z,18.77
2023-03-01T07:25:24.129Z,19.20
2023-03-01T07:27:52.509Z,18.23
2023-03-01T07:30:19.712Z,17.63
2023-03-01T07:32:46.809Z,17.05
2023-03-01T07:35:13.996Z,19.13
2023-03-01T07:37:40.756Z,18.90
2023-03-01T07:40:08.450Z,19.42
2023-03-01T07:42:35.407Z,18.17
2023-03-01T07:45:02.272Z,16.67
2023-03-01T07:47:28.936Z,15.93
2023-03-01T07:49:55.654Z,16.23
2023-03-01T07:52:22.327Z,15.90
2023-03-01T07:54:49.015Z,16.10
2023-03-01T07:57:16.216Z,15.07
2023-03-01T07:59:42.957Z,14.80
2023-03-01T08:02:11.228Z,14.50
2023-03-01T08:04:38.227Z,13.57
2023-03-01T08:07:06.515Z,13.55
2023-03-01T08:09:35.881Z,14.02
2023-03-01T08:12:02.621Z,13.63
2023-03-01T08:14:29.406Z,13.18
2023-03-01T08:16:56.325Z,12.48
2023-03-01T08:19:23.256Z,12.70
2023-03-01T08:21:50.022Z,11.10
2023-03-01T08:24:16.965Z,11.15
2023-03-01T08:26:44.050Z,12.73
2023-03-01T08:29:10.689Z,11.85
2023-03-01T08:31:40.468Z,12.60
2023-03-01T08:34:11.047Z,12.13
2023-03-01T08:36:40.852Z,12.38
2023-03-01T08:39:09.431Z,12.02
2023-03-01T08:41:36.564Z,12.90
2023-03-01T08:44:03.626Z,12.40
2023-03-01T08:46:33.599Z,12.57
2023-03-01T08:49:00.954Z,12.77
2023-03-01T08:51:27.830Z,12.88
2023-03-01T08:53:54.886Z,12.73
2023-03-01T08:56:21.846Z,13.07
2023-03-01T08:58:49.658Z,12.18
2023-03-01T09:01:19.441Z,12.52
2023-03-01T09:03:47.060Z,12.98
2023-03-01T09:06:15.010Z,13.02
2023-03-01T09:08:43.734Z,12.07
2023-03-01T09:11:14.084Z,12.60
2023-03-01T09:13:42.998Z,12.88
2023-03-01T09:16:13.039Z,13.88
2023-03-01T09:18:40.065Z,14.15
2023-03-01T09:21:15.690Z,13.65
2023-03-01T09:26:13.231Z,16.83
2023-03-01T09:28:41.949Z,17.95
2023-03-01T09:31:08.835Z,19.23
2023-03-01T09:33:35.769Z,19.73
2023-03-01T09:36:06.048Z,19.42
2023-03-01T09:38:33.011Z,19.08
2023-03-01T09:41:01.103Z,18.45
2023-03-01T09:43:35.666Z,18.30
2023-03-01T09:46:07.405Z,19.40
2023-03-01T09:48:49.690Z,18.55
2023-03-01T09:51:26.071Z,18.38
2023-03-01T09:53:55.576Z,17.52
2023-03-01T09:56:32.378Z,16.73
2023-03-01T09:59:24.330Z,17.20
2023-03-01T10:02:21.309Z,16.48
2023-03-01T10:04:50.947Z,17.33
2023-03-01T10:07:51.353Z,17.20
2023-03-01T10:10:45.296Z,17.35
2023-03-01T10:13:22.863Z,17.08
2023-03-01T10:16:02.942Z,16.92
2023-03-01T10:18:33.706Z,15.68
2023-03-01T10:21:02.749Z,16.70
2023-03-01T10:23:33.286Z,17.60
2023-03-01T10:26:14.873Z,17.38
2023-03-01T10:29:05.562Z,17.77
2023-03-01T10:31:44.081Z,17.52
2023-03-01T10:34:30.048Z,16.42
2023-03-01T10:37:10.810Z,17.33
2023-03-01T10:39:37.645Z,17.10
2023-03-01T10:42:14.668Z,15.93
2023-03-01T10:44:48.221Z,17.77
2023-03-01T10:47:18.923Z,17.75
2023-03-01T10:50:01.004Z,16.60
2023-03-01T10:52:38.630Z,15.32
2023-03-01T10:55:14.232Z,15.10
2023-03-01T11:00:26.799Z,15.80
2023-03-01T11:02:59.438Z,14.90
2023-03-01T11:05:27.045Z,16.25
2023-03-01T11:08:02.714Z,15.85
2023-03-01T11:13:30.394Z,16.17
2023-03-01T11:16:07.317Z,15.73
2023-03-01T11:18:46.903Z,17.05
2023-03-01T11:21:18.747Z,16.83
2023-03-01T11:23:47.899Z,17.08
2023-03-01T11:26:16.735Z,17.65
2023-03-01T11:28:45.817Z,17.58
2023-03-01T11:31:14.116Z,17.17
2023-03-01T11:34:14.772Z,17.42
2023-03-01T11:36:55.785Z,17.48
2023-03-01T11:39:44.810Z,17.73
2023-03-01T11:42:20.741Z,16.70
2023-03-01T11:44:50.695Z,17.48
2023-03-01T11:47:26.559Z,17.15
2023-03-01T11:50:06.995Z,17.67
2023-03-01T11:52:39.809Z,17.40
2023-03-01T11:55:09.264Z,17.73
2023-03-01T11:57:44.799Z,16.10
2023-03-01T12:00:46.882Z,16.33
2023-03-01T12:04:04.369Z,16.55
2023-03-01T12:07:00.549Z,16.55
2023-03-01T12:09:36.214Z,17.05
2023-03-01T12:12:18.845Z,17.10
2023-03-01T12:15:07.832Z,16.88
2023-03-01T12:17:40.407Z,17.30
2023-03-01T12:20:15.619Z,17.92
2023-03-01T12:23:11.324Z,16.77
2023-03-01T12:26:26.504Z,16.42
2023-03-01T12:29:16.812Z,17.23
2023-03-01T12:32:12.162Z,16.48
2023-03-01T12:34:42.467Z,17.88
2023-03-01T12:37:25.269Z,17.70
2023-03-01T12:40:23.217Z,17.98
2023-03-01T12:43:02.250Z,17.30
2023-03-01T12:45:51.718Z,17.52
2023-03-01T12:49:06.445Z,17.23
2023-03-01T12:51:35.797Z,17.65
2023-03-01T12:54:28.063Z,17.85
2023-03-01T12:56:56.376Z,17.67
2023-03-01T12:59:49.154Z,17.75
2023-03-01T13:02:46.510Z,17.25
2023-03-01T13:05:29.937Z,17.80
2023-03-01T13:08:02.869Z,18.42
2023-03-01T13:10:32.815Z,17.40
2023-03-01T13:13:08.934Z,17.95
2023-03-01T13:15:40.615Z,18.40
2023-03-01T13:18:16.045Z,19.13
2023-03-01T13:20:42.755Z,19.17
2023-03-01T13:23:20.374Z,18.92
2023-03-01T13:26:15.457Z,18.63
2023-03-01T13:28:53.820Z,17.50
2023-03-01T13:31:20.510Z,18.02
2023-03-01T13:33:54.506Z,17.63
2023-03-01T13:36:30.836Z,17.70
2023-03-01T13:39:06.069Z,17.20
2023-03-01T13:41:44.834Z,17.30
2023-03-01T13:44:39.918Z,18.30
2023-03-01T13:47:18.497Z,17.30
2023-03-01T13:49:52.883Z,17.95
2023-03-01T13:52:44.241Z,17.70
2023-03-01T13:55:45.757Z,17.70
2023-03-01T13:58:54.746Z,18.42
2023-03-01T14:01:27.646Z,17.85
2023-03-01T14:03:55.209Z,17.50
2023-03-01T14:06:25.187Z,17.70
2023-03-01T14:09:02.686Z,18.95
2023-03-01T14:11:47.972Z,17.55
2023-03-01T14:14:32.953Z,18.67
2023-03-01T14:17:11.311Z,19.25
2023-03-01T14:19:38.196Z,17.92
2023-03-01T14:22:17.460Z,19.05
2023-03-01T14:24:53.335Z,17.98
2023-03-01T14:27:21.191Z,20.20
2023-03-01T14:30:02.292Z,19.30
2023-03-01T14:32:32.371Z,19.15
2023-03-01T14:35:00.458Z,18.75
2023-03-01T14:37:33.805Z,19.10
2023-03-01T14:40:02.610Z,19.23
2023-03-01T14:42:32.856Z,19.77
2023-03-01T14:45:02.404Z,20.05
2023-03-01T14:47:39.197Z,19.30
2023-03-01T14:50:24.560Z,18.98
2023-03-01T14:52:57.779Z,19.27
2023-03-01T14:55:37.814Z,20.40
2023-03-01T14:58:06.803Z,21.30
2023-03-01T15:00:35.680Z,18.95
2023-03-01T15:03:14.343Z,19.40
2023-03-01T15:05:43.955Z,19.50
2023-03-01T15:08:21.233Z,18.60
2023-03-01T15:11:03.259Z,18.90
2023-03-01T15:13:33.182Z,19.55
2023-03-01T15:16:10.167Z,20.95
2023-03-01T15:18:38.105Z,18.90
2023-03-01T15:21:28.074Z,18.80
2023-03-01T15:24:22.991Z,19.80
2023-03-01T15:27:02.627Z,19.45
2023-03-01T15:29:31.781Z,19.73
2023-03-01T15:32:29.889Z,18.58
2023-03-01T15:34:57.455Z,18.92
2023-03-01T15:37:39.152Z,19.08
2023-03-01T15:40:32.553Z,20.67
2023-03-01T15:43:00.055Z,19.10
2023-03-01T15:45:29.034Z,19.52
2023-03-01T15:48:04.545Z,19.05
2023-03-01T15:50:36.939Z,19.58
2023-03-01T15:53:12.600Z,19.15
2023-03-01T15:58:19.290Z,19.58
2023-03-01T16:01:00.404Z,18.23
2023-03-01T16:03:29.134Z,18.65
2023-03-01T16:05:56.150Z,18.65
2023-03-01T16:08:22.858Z,18.73
2023-03-01T16:10:51.989Z,18.00
2023-03-01T16:13:18.881Z,19.08
2023-03-01T16:15:45.680Z,19.17
2023-03-01T16:18:12.980Z,18.95
2023-03-01T16:20:40.987Z,18.95
2023-03-01T16:23:11.187Z,18.80
2023-03-01T16:25:38.482Z,19.45
2023-03-01T16:28:10.034Z,19.10
2023-03-01T16:30:41.219Z,17.75
2023-03-01T16:33:25.252Z,17.90
2023-03-01T16:35:57.036Z,18.13
2023-03-01T16:38:23.827Z,19.30
2023-03-01T16:40:52.155Z,18.10
2023-03-01T16:43:19.235Z,19.25
2023-03-01T16:45:47.312Z,19.38
2023-03-01T16:48:14.481Z,20.23
2023-03-01T16:50:41.574Z,20.13
2023-03-01T16:53:08.438Z,18.52
2023-03-01T16:55:35.169Z,17.67
2023-03-01T16:58:02.499Z,15.32
2023-03-01T17:00:29.730Z,16.38
2023-03-01T17:02:56.653Z,17.70
2023-03-01T17:05:24.955Z,17.20
2023-03-01T17:07:52.058Z,17.60
2023-03-01T17:10:19.155Z,18.67
2023-03-01T17:12:49.292Z,18.55
2023-03-01T17:15:16.124Z,18.92
2023-03-01T17:17:42.875Z,19.55
2023-03-01T17:20:12.137Z,19.58
2023-03-01T17:22:38.842Z,19.63
2023-03-01T17:25:09.696Z,20.65
2023-03-01T17:27:37.777Z,20.83
2023-03-01T17:30:06.477Z,20.00
2023-03-01T17:32:33.286Z,20.13
2023-03-01T17:35:00.285Z,21.33
2023-03-01T17:37:26.960Z,19.70
2023-03-01T17:39:53.624Z,20.67
2023-03-01T17:42:20.861Z,20.38
2023-03-01T17:44:47.584Z,21.15
2023-03-01T17:47:14.393Z,20.88
2023-03-01T17:49:41.157Z,21.08
2023-03-01T17:52:07.838Z,21.08
2023-03-01T17:54:34.676Z,21.77
2023-03-01T17:57:01.558Z,22.30
2023-03-01T17:59:33.597Z,22.70
2023-03-01T18:02:01.669Z,21.02
2023-03-01T18:04:29.418Z,22.40
2023-03-01T18:06:56.208Z,20.75
2023-03-01T18:09:23.013Z,21.00
2023-03-01T18:11:49.865Z,22.50
2023-03-01T18:14:16.635Z,22.73
2023-03-01T18:16:43.580Z,21.38
2023-03-01T18:19:12.152Z,22.35
2023-03-01T18:21:38.962Z,22.20
2023-03-01T18:24:06.021Z,22.98
2023-03-01T18:26:33.308Z,22.75
2023-03-01T18:29:01.490Z,22.45
2023-03-01T18:31:32.467Z,22.65
2023-03-01T18:34:01.018Z,22.40
2023-03-01T18:36:34.551Z,20.48
2023-03-01T18:39:06.647Z,21.38
2023-03-01T18:41:34.360Z,21.15
2023-03-01T18:44:02.779Z,20.00
2023-03-01T18:46:29.648Z,20.58
2023-03-01T18:48:56.492Z,19.45
2023-03-01T18:51:28.455Z,19.45
2023-03-01T18:53:55.806Z,19.98
2023-03-01T18:56:22.496Z,20.75
2023-03-01T18:58:49.218Z,19.65
2023-03-01T19:01:18.838Z,20.75
2023-03-01T19:03:47.785Z,20.50
2023-03-01T19:06:14.971Z,21.00
2023-03-01T19:08:43.176Z,20.92
2023-03-01T19:11:10.572Z,21.13
2023-03-01T19:13:39.185Z,21.95
2023-03-01T19:16:09.409Z,21.08
2023-03-01T19:18:39.996Z,22.73
2023-03-01T19:21:08.078Z,22.83
2023-03-01T19:23:35.194Z,23.48
2023-03-01T19:26:09.380Z,21.25
2023-03-01T19:28:39.226Z,20.55
2023-03-01T19:31:08.937Z,19.40
2023-03-01T19:33:37.181Z,18.05
2023-03-01T19:36:04.741Z,17.77
2023-03-01T19:38:31.713Z,18.20
2023-03-01T19:40:58.450Z,18.00
2023-03-01T19:43:25.291Z,16.83
2023-03-01T19:45:53.182Z,15.25
2023-03-01T19:48:20.334Z,17.67
2023-03-01T19:50:47.092Z,16.55
2023-03-01T19:53:15.561Z,14.82
2023-03-01T19:55:42.496Z,15.95
2023-03-01T19:58:10.490Z,14.88
2023-03-01T20:00:38.536Z,15.93
2023-03-01T20:03:05.801Z,16.02
2023-03-01T20:05:37.666Z,15.68
2023-03-01T20:08:05.410Z,15.05
2023-03-01T20:10:33.718Z,14.43
2023-03-01T20:13:02.647Z,14.85
2023-03-01T20:15:29.680Z,15.18
2023-03-01T20:17:56.461Z,15.93
2023-03-01T20:20:23.249Z,15.00
2023-03-01T20:22:49.912Z,15.40
2023-03-01T20:25:16.664Z,15.73
2023-03-01T20:27:47.309Z,16.02
2023-03-01T20:30:15.786Z,16.48
2023-03-01T20:32:42.970Z,16.88
2023-03-01T20:35:10.956Z,16.48
2023-03-01T20:37:38.230Z,17.13
2023-03-01T20:40:05.871Z,16.70
2023-03-01T20:42:32.595Z,17.58
2023-03-01T20:44:59.321Z,17.33
2023-03-01T20:47:26.311Z,18.10
2023-03-01T20:49:53.250Z,16.60
2023-03-01T20:52:20.028Z,17.33
2023-03-01T20:54:46.846Z,16.52
2023-03-01T20:57:13.608Z,17.73
2023-03-01T20:59:40.375Z,17.10
2023-03-01T21:02:07.600Z,16.65
2023-03-01T21:04:34.314Z,17.10
2023-03-01T21:07:01.025Z,17.85
2023-03-01T21:09:27.797Z,17.95
2023-03-01T21:11:54.526Z,17.02
2023-03-01T21:14:22.493Z,17.98
2023-03-01T21:16:49.463Z,17.17
2023-03-01T21:19:16.294Z,18.05
2023-03-01T21:21:42.958Z,18.25
2023-03-01T21:24:10.599Z,16.80
2023-03-01T21:26:37.835Z,16.80
2023-03-01T21:29:04.676Z,17.33
2023-03-01T21:31:34.821Z,17.98
2023-03-01T21:34:06.674Z,18.08
2023-03-01T21:36:35.221Z,17.13
2023-03-01T21:39:02.549Z,16.67
2023-03-01T21:41:32.458Z,16.50
2023-03-01T21:44:00.748Z,17.40
2023-03-01T21:46:30.934Z,18.60
2023-03-01T21:48:58.074Z,18.05
2023-03-01T21:51:27.264Z,16.65
2023-03-01T21:53:57.705Z,16.45
2023-03-01T21:56:26.563Z,16.73
2023-03-01T21:58:54.029Z,17.35
2023-03-01T22:01:30.399Z,17.13
2023-03-01T22:03:58.534Z,16.80
2023-03-01T22:06:41.001Z,17.27
2023-03-01T22:09:09.794Z,18.27
2023-03-01T22:11:40.030Z,17.30
2023-03-01T22:14:07.697Z,17.77
2023-03-01T22:16:36.574Z,17.30
2023-03-01T22:19:05.460Z,16.65
2023-03-01T22:21:33.113Z,17.52
2023-03-01T22:24:01.387Z,18.10
2023-03-01T22:26:31.093Z,18.27
2023-03-01T22:29:00.353Z,18.23
2023-03-01T22:31:27.792Z,18.85
2023-03-01T22:33:56.195Z,18.25
2023-03-01T22:36:23.043Z,17.95
2023-03-01T22:38:52.233Z,17.80
2023-03-01T22:41:18.967Z,19.08
2023-03-01T22:43:45.627Z,18.55
2023-03-01T22:46:17.720Z,18.88
2023-03-01T22:48:45.737Z,18.55
2023-03-01T22:51:18.881Z,18.98
2023-03-01T22:53:45.617Z,19.42
2023-03-01T22:56:17.672Z,18.55
2023-03-01T22:58:44.801Z,18.70
2023-03-01T23:01:16.362Z,19.02
2023-03-01T23:03:43.824Z,20.17
2023-03-01T23:06:11.137Z,18.83
2023-03-01T23:08:38.301Z,20.05
2023-03-01T23:11:10.744Z,20.30
2023-03-01T23:13:37.537Z,19.52
2023-03-01T23:16:04.573Z,20.10
2023-03-01T23:18:31.347Z,19.77
2023-03-01T23:20:58.940Z,19.02
2023-03-01T23:23:26.476Z,20.02
2023-03-01T23:25:55.202Z,19.70
2023-03-01T23:28:22.314Z,18.58
2023-03-01T23:31:04.048Z,20.67
2023-03-01T23:33:37.883Z,19.40
2023-03-01T23:36:18.749Z,19.63
2023-03-01T23:38:50.749Z,19.17
2023-03-01T23:41:20.973Z,19.10
2023-03-01T23:43:50.079Z,19.90
2023-03-01T23:46:18.746Z,20.02
2023-03-01T23:48:46.068Z,18.70
2023-03-01T23:51:14.180Z,19.02
2023-03-01T23:53:44.004Z,20.50
2023-03-01T23:56:13.104Z,18.95
2023-03-01T23:58:39.856Z,18.25
